Time;durP1;ratioP1;P1;durP2;ratioP2;P2;SDS_P1;SDS_P2;PMS_P1;PMS_P2;Temp;Humidity;BMP_temperature;BMP_pressure;BME280_temperature;BME280_humidity;BME280_pressure;Samples;Min_cycle;Max_cycle;Signal;HPM_P1;HPM_P2
2021/05/01 00:00:34;;;;;;;16.10;13.60;;;8.00;99.90;;;;;;5085012;28;20452;-82
2021/05/01 00:03:00;;;;;;;22.90;17.38;;;8.00;99.90;;;;;;5079616;28;20353;-81
2021/05/01 00:05:26;;;;;;;26.48;19.75;;;8.00;99.90;;;;;;5078249;28;20032;-82
2021/05/01 00:07:52;;;;;;;21.05;18.75;;;7.90;99.90;;;;;;5055883;28;20041;-82
2021/05/01 00:10:18;;;;;;;22.67;18.48;;;7.90;99.90;;;;;;5083569;28;20028;-82
2021/05/01 00:12:43;;;;;;;23.88;18.48;;;7.80;99.90;;;;;;5072332;28;20051;-82
2021/05/01 00:15:12;;;;;;;21.00;16.80;;;7.80;99.90;;;;;;5079896;28;20029;-82
2021/05/01 00:17:37;;;;;;;24.38;19.08;;;7.80;99.90;;;;;;5079196;28;20104;-83
2021/05/01 00:20:04;;;;;;;23.58;18.70;;;7.80;99.90;;;;;;5070762;28;20043;-81
2021/05/01 00:22:30;;;;;;;20.77;17.92;;;7.80;99.90;;;;;;5083374;28;20024;-82
2021/05/01 00:24:56;;;;;;;23.30;19.30;;;7.90;99.90;;;;;;5072411;28;20040;-81
2021/05/01 00:27:22;;;;;;;25.52;19.67;;;7.90;99.90;;;;;;5078010;28;20372;-82
2021/05/01 00:29:47;;;;;;;22.67;18.52;;;7.80;99.90;;;;;;5072068;28;20034;-82
2021/05/01 00:32:13;;;;;;;23.15;18.20;;;7.80;99.90;;;;;;5071854;28;20459;-82
2021/05/01 00:34:39;;;;;;;21.58;17.67;;;7.70;99.90;;;;;;5076525;28;20089;-82
2021/05/01 00:37:05;;;;;;;23.00;18.60;;;7.70;99.90;;;;;;5080147;28;20043;-83
2021/05/01 00:39:32;;;;;;;20.63;17.80;;;7.70;99.90;;;;;;5079905;28;20013;-84
2021/05/01 00:41:57;;;;;;;21.40;16.33;;;7.60;99.90;;;;;;5081932;28;20039;-82
2021/05/01 00:44:23;;;;;;;24.48;18.70;;;7.60;99.90;;;;;;5084394;28;20057;-83
2021/05/01 00:46:49;;;;;;;22.33;18.08;;;7.60;99.90;;;;;;5080839;28;20027;-84
2021/05/01 00:49:15;;;;;;;25.80;19.35;;;7.60;99.90;;;;;;5081884;28;20036;-81
2021/05/01 00:51:41;;;;;;;21.98;17.85;;;7.60;99.90;;;;;;5085460;28;20103;-82
2021/05/01 00:54:07;;;;;;;20.98;17.75;;;7.60;99.90;;;;;;5085522;28;20464;-81
2021/05/01 00:56:33;;;;;;;23.23;18.23;;;7.60;99.90;;;;;;5082915;28;20027;-84
2021/05/01 00:58:59;;;;;;;20.70;16.80;;;7.60;99.90;;;;;;5085405;28;20023;-82
2021/05/01 01:01:26;;;;;;;21.45;18.27;;;7.60;99.90;;;;;;5066075;28;20080;-81
2021/05/01 01:03:52;;;;;;;22.88;18.75;;;7.60;99.90;;;;;;5087586;28;20024;-82
2021/05/01 01:06:19;;;;;;;30.63;23.92;;;7.50;99.90;;;;;;5095635;28;20051;-82
2021/05/01 01:08:45;;;;;;;30.25;24.02;;;7.50;99.90;;;;;;5062406;28;20059;-82
2021/05/01 01:11:12;;;;;;;26.88;22.15;;;7.50;99.90;;;;;;5075202;28;20052;-82
2021/05/01 01:13:38;;;;;;;25.38;20.30;;;7.40;99.90;;;;;;5074404;28;20119;-82
2021/05/01 01:16:05;;;;;;;24.00;19.40;;;7.40;99.90;;;;;;5082697;28;20032;-82
2021/05/01 01:18:32;;;;;;;24.75;19.48;;;7.40;99.90;;;;;;5085509;28;20020;-80
2021/05/01 01:21:03;;;;;;;30.27;20.73;;;7.30;99.90;;;;;;5083633;28;20034;-82
2021/05/01 01:23:29;;;;;;;26.17;21.02;;;7.30;99.90;;;;;;5084927;28;20023;-83
2021/05/01 01:25:55;;;;;;;23.05;19.45;;;7.30;99.90;;;;;;5083205;28;20043;-83
2021/05/01 01:28:21;;;;;;;25.48;21.08;;;7.30;99.90;;;;;;5084852;28;20420;-82
2021/05/01 01:30:47;;;;;;;23.55;19.58;;;7.30;99.90;;;;;;5085690;28;20016;-82
2021/05/01 01:33:14;;;;;;;24.50;20.23;;;7.30;99.90;;;;;;5083034;28;20119;-82
2021/05/01 01:35:40;;;;;;;20.67;17.63;;;7.20;99.90;;;;;;5082749;28;20020;-84
2021/05/01 01:38:07;;;;;;;23.50;19.50;;;7.20;99.90;;;;;;5082143;28;20028;-83
2021/05/01 01:40:35;;;;;;;24.08;18.75;;;7.20;99.90;;;;;;5082786;28;20373;-84
2021/05/01 01:43:04;;;;;;;24.33;18.45;;;7.20;99.90;;;;;;5086005;28;20124;-82
2021/05/01 01:45:30;;;;;;;22.60;18.05;;;7.10;99.90;;;;;;5082761;28;20028;-83
2021/05/01 01:47:57;;;;;;;20.55;16.60;;;7.10;99.90;;;;;;5085244;28;20538;-83
2021/05/01 01:50:24;;;;;;;22.05;16.45;;;7.00;99.90;;;;;;5084814;28;20020;-84
2021/05/01 01:52:53;;;;;;;19.00;15.18;;;7.00;99.90;;;;;;5085564;28;20016;-84
2021/05/01 01:55:21;;;;;;;20.27;15.93;;;7.00;99.90;;;;;;5094760;28;20449;-82
2021/05/01 01:57:48;;;;;;;23.23;18.02;;;6.90;99.90;;;;;;5077041;28;20111;-81
2021/05/01 02:00:19;;;;;;;20.17;16.40;;;6.90;99.90;;;;;;5074297;28;20020;-82
2021/05/01 02:02:47;;;;;;;19.35;14.32;;;6.90;99.90;;;;;;5073945;28;20405;-82
2021/05/01 02:05:14;;;;;;;18.15;15.30;;;6.80;99.90;;;;;;5074798;28;20051;-82
2021/05/01 02:07:40;;;;;;;18.27;14.45;;;6.80;99.90;;;;;;5072223;28;20499;-83
2021/05/01 02:10:07;;;;;;;20.50;15.70;;;6.70;99.90;;;;;;5072198;28;20147;-82
2021/05/01 02:12:37;;;;;;;18.60;14.63;;;6.60;99.90;;;;;;5071839;28;20111;-82
2021/05/01 02:15:06;;;;;;;19.20;15.27;;;6.60;99.90;;;;;;5074792;28;20021;-82
2021/05/01 02:17:32;;;;;;;16.58;13.05;;;6.60;99.90;;;;;;5073317;28;20086;-82
2021/05/01 02:19:58;;;;;;;19.10;14.05;;;6.60;99.90;;;;;;5073434;28;20029;-82
2021/05/01 02:22:24;;;;;;;17.10;13.40;;;6.50;99.90;;;;;;5055652;28;20030;-82
2021/05/01 02:24:50;;;;;;;14.90;12.70;;;6.50;99.90;;;;;;5071814;28;20044;-82
2021/05/01 02:27:15;;;;;;;13.75;11.63;;;6.50;99.90;;;;;;5071982;28;20029;-82
2021/05/01 02:29:41;;;;;;;13.27;10.85;;;6.50;99.90;;;;;;5072516;28;20029;-82
2021/05/01 02:32:07;;;;;;;12.55;10.57;;;6.40;99.90;;;;;;5073781;28;20039;-82
2021/05/01 02:34:33;;;;;;;16.80;9.07;;;6.40;99.90;;;;;;5074111;28;20039;-82
2021/05/01 02:36:58;;;;;;;12.98;10.00;;;6.40;99.90;;;;;;5073665;28;20128;-83
2021/05/01 02:39:24;;;;;;;13.45;9.82;;;6.30;99.90;;;;;;5073871;28;20028;-82
2021/05/01 02:41:50;;;;;;;13.23;10.07;;;6.30;99.90;;;;;;5073361;28;20028;-82
2021/05/01 02:44:17;;;;;;;12.77;9.32;;;6.20;99.90;;;;;;5075247;28;20024;-82
2021/05/01 02:46:43;;;;;;;13.15;9.50;;;6.20;99.90;;;;;;5057078;28;20029;-82
2021/05/01 02:49:09;;;;;;;13.50;9.90;;;6.10;99.90;;;;;;5073441;28;20106;-83
2021/05/01 02:51:34;;;;;;;13.85;10.68;;;6.10;99.90;;;;;;5073562;28;20479;-82
2021/05/01 02:54:00;;;;;;;12.10;9.98;;;6.10;99.90;;;;;;5074503;28;20078;-83
2021/05/01 02:56:26;;;;;;;13.52;10.25;;;6.10;99.90;;;;;;5073378;28;20081;-82
2021/05/01 02:58:51;;;;;;;15.98;11.20;;;6.10;99.90;;;;;;5073355;28;20035;-82
2021/05/01 03:01:17;;;;;;;14.75;11.60;;;6.10;99.90;;;;;;5074335;28;20032;-82
2021/05/01 03:03:46;;;;;;;14.07;10.68;;;6.10;99.90;;;;;;5074698;28;20032;-82
2021/05/01 03:06:14;;;;;;;14.85;11.57;;;6.00;99.90;;;;;;5073264;28;20024;-82
2021/05/01 03:08:40;;;;;;;14.43;10.52;;;6.00;99.90;;;;;;5074367;28;20467;-82
2021/05/01 03:11:06;;;;;;;12.98;11.23;;;6.00;99.90;;;;;;5072789;28;20032;-82
2021/05/01 03:13:31;;;;;;;12.60;10.82;;;5.90;99.90;;;;;;5074088;28;20021;-82
2021/05/01 03:15:58;;;;;;;14.85;11.60;;;5.90;99.90;;;;;;5072635;28;20123;-82
2021/05/01 03:18:24;;;;;;;13.85;11.02;;;5.80;99.90;;;;;;5072885;28;20525;-82
2021/05/01 03:20:50;;;;;;;16.48;12.63;;;5.80;99.90;;;;;;5056143;28;20362;-82
2021/05/01 03:23:16;;;;;;;17.27;11.98;;;5.80;99.90;;;;;;5072800;28;20027;-82
2021/05/01 03:25:42;;;;;;;15.02;11.57;;;5.80;99.90;;;;;;5073735;28;20132;-82
2021/05/01 03:28:08;;;;;;;17.60;11.80;;;5.70;99.90;;;;;;5072855;28;20120;-82
2021/05/01 03:30:33;;;;;;;20.95;12.68;;;5.60;99.90;;;;;;5072771;28;20350;-82
2021/05/01 03:32:59;;;;;;;16.60;13.13;;;5.60;99.90;;;;;;5072405;28;20035;-82
2021/05/01 03:35:25;;;;;;;15.73;11.88;;;5.60;99.90;;;;;;5073646;28;20024;-82
2021/05/01 03:37:50;;;;;;;18.50;13.70;;;5.60;99.90;;;;;;5072519;28;20028;-82
2021/05/01 03:40:17;;;;;;;15.23;12.13;;;5.50;99.90;;;;;;5073567;28;20032;-83
2021/05/01 03:42:43;;;;;;;16.75;12.88;;;5.50;99.90;;;;;;5072194;28;20028;-83
2021/05/01 03:45:10;;;;;;;17.33;13.00;;;5.50;99.90;;;;;;5073732;28;20082;-82
2021/05/01 03:47:36;;;;;;;16.95;13.30;;;5.50;99.90;;;;;;5073363;28;20024;-83
2021/05/01 03:50:02;;;;;;;16.52;13.95;;;5.40;99.90;;;;;;5055862;28;20025;-82
2021/05/01 03:52:28;;;;;;;15.40;11.90;;;5.40;99.90;;;;;;5071928;28;20477;-83
2021/05/01 03:54:54;;;;;;;17.05;13.43;;;5.40;99.90;;;;;;5072315;28;20028;-83
2021/05/01 03:57:20;;;;;;;18.80;13.38;;;5.40;99.90;;;;;;5072266;28;20016;-83
2021/05/01 03:59:46;;;;;;;19.38;12.55;;;5.30;99.90;;;;;;5073647;28;20031;-83
2021/05/01 04:02:11;;;;;;;18.50;13.10;;;5.30;99.90;;;;;;5072079;28;20021;-82
2021/05/01 04:04:38;;;;;;;19.13;13.88;;;5.30;99.90;;;;;;5072281;28;20021;-83
2021/05/01 04:07:03;;;;;;;16.25;12.95;;;5.30;99.90;;;;;;5073331;28;20024;-82
2021/05/01 04:09:29;;;;;;;19.92;14.43;;;5.20;99.90;;;;;;5073393;28;20361;-83
2021/05/01 04:11:55;;;;;;;16.67;13.65;;;5.20;99.90;;;;;;5071979;28;20032;-83
2021/05/01 04:14:21;;;;;;;20.30;14.35;;;5.20;99.90;;;;;;5072060;28;20024;-82
2021/05/01 04:16:47;;;;;;;16.63;13.15;;;5.20;99.90;;;;;;5073172;28;20028;-82
2021/05/01 04:19:13;;;;;;;17.33;13.77;;;5.20;99.90;;;;;;5055167;28;20428;-82
2021/05/01 04:21:38;;;;;;;18.80;13.52;;;5.10;99.90;;;;;;5071943;28;20025;-82
2021/05/01 04:24:05;;;;;;;18.63;13.52;;;5.20;99.90;;;;;;5071362;28;20052;-83
2021/05/01 04:26:31;;;;;;;16.02;12.02;;;5.10;99.90;;;;;;5071615;28;20115;-82
2021/05/01 04:28:57;;;;;;;16.30;11.85;;;5.10;99.90;;;;;;5072006;28;20449;-82
2021/05/01 04:31:23;;;;;;;16.27;12.05;;;5.10;99.90;;;;;;5071863;28;20024;-82
2021/05/01 04:33:48;;;;;;;15.50;12.13;;;5.10;99.90;;;;;;5071915;28;20017;-82
2021/05/01 04:36:14;;;;;;;17.17;13.32;;;5.10;99.90;;;;;;5073267;28;20342;-83
2021/05/01 04:38:40;;;;;;;15.35;12.00;;;5.10;99.90;;;;;;5071823;28;20100;-82
2021/05/01 04:41:06;;;;;;;18.50;12.82;;;5.10;99.90;;;;;;5071740;28;20031;-81
2021/05/01 04:43:33;;;;;;;16.65;12.48;;;5.10;99.90;;;;;;5071225;28;20043;-83
2021/05/01 04:46:00;;;;;;;17.75;14.23;;;5.00;99.90;;;;;;5071730;28;20028;-82
2021/05/01 04:48:29;;;;;;;16.42;12.75;;;5.00;99.90;;;;;;5071681;28;20123;-82
2021/05/01 04:50:54;;;;;;;16.45;13.10;;;5.10;99.90;;;;;;5071772;28;20484;-82
2021/05/01 04:53:22;;;;;;;18.20;13.38;;;5.10;99.90;;;;;;5072815;28;20029;-82
2021/05/01 04:55:48;;;;;;;22.05;15.45;;;5.10;99.90;;;;;;5071479;28;20476;-82
2021/05/01 04:58:14;;;;;;;17.73;13.98;;;5.10;99.90;;;;;;5072981;28;20460;-82
2021/05/01 05:00:41;;;;;;;19.08;15.48;;;5.10;99.90;;;;;;5072632;28;20024;-82
2021/05/01 05:03:07;;;;;;;21.05;16.02;;;5.10;99.90;;;;;;5071512;28;20024;-82
2021/05/01 05:05:33;;;;;;;24.40;18.02;;;5.10;99.90;;;;;;5071590;28;20032;-82
2021/05/01 05:07:59;;;;;;;23.67;18.67;;;5.10;99.90;;;;;;5071472;28;20025;-82
2021/05/01 05:10:25;;;;;;;23.30;17.85;;;5.10;99.90;;;;;;5071628;28;20111;-82
2021/05/01 05:12:51;;;;;;;18.30;15.30;;;5.10;99.90;;;;;;5071310;28;20028;-82
2021/05/01 05:15:17;;;;;;;23.88;17.33;;;5.20;99.90;;;;;;5054301;28;20029;-82
2021/05/01 05:17:43;;;;;;;20.05;15.48;;;5.20;99.90;;;;;;5070893;28;20388;-82
2021/05/01 05:20:12;;;;;;;21.70;17.25;;;5.20;99.90;;;;;;5071329;28;20025;-82
2021/05/01 05:22:38;;;;;;;19.33;15.90;;;5.20;99.90;;;;;;5071543;28;20020;-81
2021/05/01 05:25:05;;;;;;;20.77;17.15;;;5.20;99.90;;;;;;5072339;28;20052;-81
2021/05/01 05:27:31;;;;;;;20.00;16.00;;;5.30;99.90;;;;;;5072638;28;20461;-80
2021/05/01 05:29:57;;;;;;;19.65;16.38;;;5.30;99.90;;;;;;5071384;28;20453;-82
2021/05/01 05:32:24;;;;;;;20.30;16.30;;;5.40;99.90;;;;;;5071231;28;20052;-81
2021/05/01 05:34:51;;;;;;;22.17;16.92;;;5.40;99.90;;;;;;5072752;28;20035;-81
2021/05/01 05:37:18;;;;;;;20.40;15.10;;;5.40;99.90;;;;;;5074874;28;20025;-82
2021/05/01 05:39:47;;;;;;;22.48;17.20;;;5.40;99.90;;;;;;5074792;28;20116;-81
2021/05/01 05:42:13;;;;;;;22.02;18.60;;;5.50;99.90;;;;;;5075854;28;20020;-82
2021/05/01 05:44:44;;;;;;;24.17;19.52;;;5.50;99.90;;;;;;5074097;28;20040;-82
2021/05/01 05:47:11;;;;;;;25.48;19.15;;;5.50;99.90;;;;;;5074248;28;20027;-82
2021/05/01 05:49:37;;;;;;;24.75;20.30;;;5.60;99.90;;;;;;5075624;28;20039;-81
2021/05/01 05:52:03;;;;;;;26.95;20.60;;;5.60;99.90;;;;;;5074583;28;20025;-81
2021/05/01 05:54:29;;;;;;;27.00;22.13;;;5.70;99.90;;;;;;5074539;28;20191;-80
2021/05/01 05:56:55;;;;;;;25.88;20.17;;;5.70;99.90;;;;;;5074485;28;20353;-81
2021/05/01 05:59:21;;;;;;;26.85;22.55;;;5.70;99.90;;;;;;5075613;28;20384;-81
2021/05/01 06:01:48;;;;;;;27.48;21.55;;;5.80;99.90;;;;;;5074475;28;20021;-81
2021/05/01 06:04:40;;;;;;;34.58;25.38;;;5.90;99.90;;;;;;5076838;28;20498;-81
2021/05/01 06:07:11;;;;;;;32.05;25.52;;;5.90;99.90;;;;;;5075196;28;20195;-81
2021/05/01 06:09:40;;;;;;;32.88;25.33;;;6.00;99.90;;;;;;5074337;28;20127;-81
2021/05/01 06:12:11;;;;;;;35.83;27.33;;;6.00;99.90;;;;;;5073865;28;20028;-81
2021/05/01 06:14:42;;;;;;;34.03;27.42;;;6.10;99.90;;;;;;5057293;28;20036;-81
2021/05/01 06:17:11;;;;;;;29.15;23.90;;;6.10;99.90;;;;;;5074182;28;20032;-81
2021/05/01 06:19:39;;;;;;;33.95;25.80;;;6.20;99.90;;;;;;5074125;28;20468;-82
2021/05/01 06:22:04;;;;;;;35.55;29.45;;;6.20;99.90;;;;;;5073969;28;20048;-82
2021/05/01 06:24:31;;;;;;;32.70;25.63;;;6.30;99.90;;;;;;5057294;28;20052;-83
2021/05/01 06:26:57;;;;;;;39.00;28.45;;;6.40;99.90;;;;;;5075050;28;20497;-82
2021/05/01 06:29:25;;;;;;;36.90;27.35;;;6.40;99.90;;;;;;5075190;28;20033;-82
2021/05/01 06:31:51;;;;;;;36.60;29.85;;;6.50;99.90;;;;;;5057305;28;20028;-82
2021/05/01 06:34:16;;;;;;;37.03;27.30;;;6.50;99.90;;;;;;5073728;28;20073;-82
2021/05/01 06:36:42;;;;;;;34.22;27.30;;;6.60;99.90;;;;;;5073849;28;20021;-82
2021/05/01 06:39:12;;;;;;;33.38;27.08;;;6.70;99.90;;;;;;5073023;28;20028;-82
2021/05/01 06:41:53;;;;;;;31.08;25.77;;;6.70;99.90;;;;;;5057060;28;20040;-82
2021/05/01 06:44:36;;;;;;;32.83;26.13;;;6.80;99.90;;;;;;5074225;28;20117;-81
2021/05/01 06:47:06;;;;;;;35.23;26.93;;;7.00;99.90;;;;;;5072937;28;20048;-82
2021/05/01 06:49:57;;;;;;;34.72;27.75;;;7.00;99.90;;;;;;5074509;28;20041;-82
2021/05/01 06:52:23;;;;;;;36.20;25.67;;;7.10;99.90;;;;;;5074755;28;20016;-81
2021/05/01 06:54:51;;;;;;;33.30;23.92;;;7.20;99.90;;;;;;5073490;28;20056;-82
2021/05/01 06:57:23;;;;;;;30.65;23.60;;;7.30;99.90;;;;;;5073352;28;20031;-83
2021/05/01 06:59:53;;;;;;;26.35;20.63;;;7.40;99.90;;;;;;5073389;28;20115;-82
2021/05/01 07:02:28;;;;;;;28.20;20.80;;;7.50;99.90;;;;;;5073117;28;20025;-83
2021/05/01 07:04:55;;;;;;;31.30;22.55;;;7.50;99.90;;;;;;5054256;28;20036;-82
2021/05/01 07:07:23;;;;;;;27.42;20.92;;;7.50;99.90;;;;;;5084699;28;20017;-82
2021/05/01 07:09:49;;;;;;;32.38;22.70;;;7.50;99.90;;;;;;5088865;28;20032;-82
2021/05/01 07:12:15;;;;;;;24.98;19.67;;;7.50;99.90;;;;;;5079275;28;20039;-83
2021/05/01 07:14:42;;;;;;;25.25;18.98;;;7.50;99.90;;;;;;5063140;28;20041;-84
2021/05/01 07:17:07;;;;;;;22.85;17.23;;;7.60;99.90;;;;;;5079502;28;20384;-82
2021/05/01 07:19:34;;;;;;;25.80;17.38;;;7.70;99.90;;;;;;5079028;28;20028;-82
2021/05/01 07:22:01;;;;;;;22.13;17.58;;;7.70;99.90;;;;;;5082179;28;20051;-83
2021/05/01 07:24:27;;;;;;;22.77;18.60;;;7.80;99.90;;;;;;5080556;28;20078;-83
2021/05/01 07:26:55;;;;;;;27.33;20.00;;;7.90;99.90;;;;;;5063183;28;20070;-83
2021/05/01 07:29:22;;;;;;;23.92;18.08;;;8.10;99.90;;;;;;5080567;28;20028;-83
2021/05/01 07:31:49;;;;;;;28.80;18.17;;;8.10;99.90;;;;;;5080349;28;20024;-83
2021/05/01 07:34:21;;;;;;;24.52;17.77;;;8.30;99.90;;;;;;5080800;28;20488;-83
2021/05/01 07:36:51;;;;;;;21.90;17.20;;;8.40;99.90;;;;;;5081501;28;20115;-83
2021/05/01 07:39:16;;;;;;;23.80;16.83;;;8.60;99.90;;;;;;5079154;28;20465;-84
2021/05/01 07:41:45;;;;;;;18.35;15.05;;;8.70;99.90;;;;;;5082298;28;20062;-83
2021/05/01 07:44:11;;;;;;;16.25;13.05;;;8.70;99.90;;;;;;5080369;28;20443;-83
2021/05/01 07:46:39;;;;;;;19.52;13.77;;;8.90;99.90;;;;;;5079339;28;20028;-82
2021/05/01 07:49:09;;;;;;;17.67;13.02;;;9.00;99.90;;;;;;5082535;28;20016;-83
2021/05/01 07:51:39;;;;;;;15.70;12.38;;;9.00;99.90;;;;;;5079774;28;20043;-83
2021/05/01 07:54:05;;;;;;;15.43;12.07;;;9.00;99.90;;;;;;5078677;28;20017;-83
2021/05/01 07:56:32;;;;;;;14.00;11.40;;;8.90;99.90;;;;;;5081430;28;20020;-83
2021/05/01 07:59:00;;;;;;;15.88;13.05;;;8.90;99.90;;;;;;5080726;28;20376;-83
2021/05/01 08:01:28;;;;;;;19.92;11.90;;;8.90;99.90;;;;;;5080082;28;20020;-83
2021/05/01 08:03:54;;;;;;;17.95;12.45;;;8.90;99.90;;;;;;5082022;28;20479;-83
2021/05/01 08:06:22;;;;;;;14.93;11.00;;;9.00;99.90;;;;;;5080016;28;20028;-84
2021/05/01 08:08:48;;;;;;;14.98;8.82;;;9.00;99.90;;;;;;5079900;28;20024;-84
2021/05/01 08:11:14;;;;;;;16.58;10.68;;;9.10;99.90;;;;;;5079300;28;20077;-84
2021/05/01 08:13:40;;;;;;;12.40;10.10;;;9.20;99.90;;;;;;5080319;28;20489;-84
2021/05/01 08:16:09;;;;;;;13.80;10.27;;;9.30;99.90;;;;;;5081723;28;20037;-83
2021/05/01 08:18:36;;;;;;;13.85;8.50;;;9.30;99.90;;;;;;5078895;28;20028;-85
2021/05/01 08:21:03;;;;;;;10.77;8.60;;;9.30;99.90;;;;;;5084786;28;20146;-84
2021/05/01 08:23:32;;;;;;;10.55;8.25;;;9.30;99.90;;;;;;5078223;28;20024;-85
2021/05/01 08:26:02;;;;;;;12.25;8.60;;;9.30;99.90;;;;;;5081282;28;20044;-84
2021/05/01 08:28:28;;;;;;;11.30;7.88;;;9.40;99.90;;;;;;5078784;28;20048;-84
2021/05/01 08:30:54;;;;;;;11.60;8.60;;;9.50;99.90;;;;;;5078887;28;20020;-85
2021/05/01 08:33:20;;;;;;;12.07;8.65;;;9.60;99.90;;;;;;5080445;28;20436;-84
2021/05/01 08:35:46;;;;;;;9.65;7.40;;;9.60;99.90;;;;;;5078122;28;20115;-84
2021/05/01 08:38:19;;;;;;;10.18;7.15;;;9.60;99.90;;;;;;5085733;28;20111;-85
2021/05/01 08:40:44;;;;;;;11.93;6.40;;;9.60;99.90;;;;;;5089972;28;20024;-84
2021/05/01 08:43:10;;;;;;;6.75;5.55;;;9.70;99.90;;;;;;5072921;28;20545;-85
2021/05/01 08:45:36;;;;;;;11.73;7.35;;;9.90;99.90;;;;;;5089745;28;20025;-84
2021/05/01 08:48:04;;;;;;;9.88;6.70;;;10.10;99.90;;;;;;5089834;28;20024;-81
2021/05/01 08:50:41;;;;;;;9.18;6.65;;;10.00;99.90;;;;;;5073206;28;20349;-82
2021/05/01 08:53:08;;;;;;;10.13;6.53;;;10.10;99.90;;;;;;5089952;28;20034;-82
2021/05/01 08:55:38;;;;;;;7.20;5.75;;;10.20;99.90;;;;;;5089767;28;20020;-83
2021/05/01 08:58:08;;;;;;;9.02;5.38;;;10.30;99.90;;;;;;5091185;28;20034;-83
2021/05/01 09:00:41;;;;;;;10.60;5.90;;;10.40;99.90;;;;;;5089931;28;20085;-82
2021/05/01 09:03:11;;;;;;;7.35;5.07;;;10.40;99.90;;;;;;5072634;28;20050;-82
2021/05/01 09:05:47;;;;;;;8.07;5.97;;;10.50;99.90;;;;;;5089744;28;20028;-83
2021/05/01 09:08:13;;;;;;;10.90;6.22;;;10.70;99.90;;;;;;5088825;28;20039;-82
2021/05/01 09:10:46;;;;;;;9.25;5.75;;;10.80;99.90;;;;;;5075755;28;20020;-83
2021/05/01 09:13:32;;;;;;;6.77;5.00;;;10.70;99.90;;;;;;5093499;28;20024;-83
2021/05/01 09:16:07;;;;;;;9.68;6.00;;;10.70;99.90;;;;;;5092978;28;20274;-83
2021/05/01 09:18:59;;;;;;;9.27;6.00;;;10.70;99.90;;;;;;5093285;28;20027;-83
2021/05/01 09:21:30;;;;;;;8.05;5.78;;;10.90;99.90;;;;;;5093455;28;20032;-84
2021/05/01 09:23:59;;;;;;;9.73;6.10;;;11.00;99.90;;;;;;5093413;28;20115;-83
2021/05/01 09:26:41;;;;;;;8.70;5.35;;;11.40;99.90;;;;;;5092559;28;20093;-84
2021/05/01 09:29:09;;;;;;;8.45;4.82;;;11.60;99.90;;;;;;5093248;28;20039;-83
2021/05/01 09:31:48;;;;;;;9.65;5.10;;;11.60;99.90;;;;;;5094772;28;20036;-83
2021/05/01 09:34:14;;;;;;;7.22;4.35;;;11.80;99.90;;;;;;5076448;28;20129;-83
2021/05/01 09:36:41;;;;;;;10.07;4.55;;;12.70;99.90;;;;;;5093077;28;20020;-85
2021/05/01 09:39:16;;;;;;;6.57;4.90;;;13.80;99.90;;;;;;5093702;28;20553;-84
2021/05/01 09:41:46;;;;;;;6.93;4.13;;;14.10;98.50;;;;;;5093050;28;20161;-84
2021/05/01 09:44:19;;;;;;;7.03;3.95;;;14.30;98.10;;;;;;5092341;28;20123;-84
2021/05/01 09:46:51;;;;;;;6.40;3.60;;;14.30;98.50;;;;;;5076049;28;20028;-84
2021/05/01 09:49:35;;;;;;;6.78;4.20;;;14.50;98.50;;;;;;5094356;28;20032;-84
2021/05/01 09:52:15;;;;;;;5.35;3.80;;;14.70;97.50;;;;;;5094281;28;20055;-84
2021/05/01 09:54:45;;;;;;;7.03;4.00;;;14.30;97.60;;;;;;5075646;28;20036;-85
2021/05/01 09:57:21;;;;;;;7.25;3.80;;;14.80;97.40;;;;;;5094104;28;20353;-84
2021/05/01 09:59:49;;;;;;;5.97;3.42;;;14.80;96.90;;;;;;5092714;28;20470;-84
2021/05/01 10:02:20;;;;;;;4.18;2.90;;;15.20;97.00;;;;;;5092193;28;20028;-84
2021/05/01 10:05:13;;;;;;;7.90;3.72;;;16.00;96.50;;;;;;5092586;28;20036;-84
2021/05/01 10:07:44;;;;;;;5.47;3.00;;;16.10;91.70;;;;;;5075200;28;20036;-85
2021/05/01 10:10:10;;;;;;;5.70;3.10;;;16.00;92.50;;;;;;5086788;28;20472;-84
2021/05/01 10:12:38;;;;;;;6.05;3.75;;;16.50;92.10;;;;;;5092329;28;20448;-86
2021/05/01 10:15:24;;;;;;;5.07;3.05;;;16.60;90.70;;;;;;5091968;28;20032;-84
2021/05/01 10:17:51;;;;;;;5.65;2.78;;;15.90;91.30;;;;;;5093504;28;20372;-84
2021/05/01 10:20:18;;;;;;;7.53;3.63;;;15.20;92.00;;;;;;5074831;28;20043;-84
2021/05/01 10:22:50;;;;;;;5.18;2.85;;;14.50;91.00;;;;;;5091017;28;20056;-84
2021/05/01 10:25:26;;;;;;;4.95;3.05;;;14.00;92.40;;;;;;5091828;28;20143;-84
2021/05/01 10:30:44;;;;;;;5.07;2.97;;;13.40;93.60;;;;;;5086967;28;20063;-85
2021/05/01 10:36:20;;;;;;;5.60;3.08;;;12.70;94.60;;;;;;5087779;28;20040;-84
2021/05/01 10:38:59;;;;;;;5.75;3.80;;;12.50;95.30;;;;;;5089973;28;20467;-84
2021/05/01 10:41:30;;;;;;;5.32;3.15;;;12.40;95.70;;;;;;5088488;28;20016;-83
2021/05/01 10:43:57;;;;;;;5.13;3.33;;;12.40;95.70;;;;;;5072058;28;20460;-82
2021/05/01 10:46:28;;;;;;;7.03;3.47;;;12.40;96.00;;;;;;5074676;28;20052;-83
2021/05/01 10:48:59;;;;;;;5.15;2.83;;;12.30;95.60;;;;;;5079316;28;20039;-83
2021/05/01 10:51:28;;;;;;;6.50;3.50;;;12.20;95.70;;;;;;5073098;28;20024;-81
2021/05/01 10:54:11;;;;;;;4.00;2.78;;;12.20;95.70;;;;;;5072808;28;20044;-82
2021/05/01 10:56:45;;;;;;;4.60;3.17;;;12.10;95.70;;;;;;5073029;28;20050;-83
2021/05/01 10:59:16;;;;;;;5.82;3.25;;;12.10;95.80;;;;;;5071580;28;20115;-84
2021/05/01 11:01:47;;;;;;;3.83;2.70;;;12.20;95.80;;;;;;5072685;28;20020;-83
2021/05/01 11:04:24;;;;;;;4.18;2.40;;;12.30;96.00;;;;;;5071410;28;20029;-84
2021/05/01 11:07:11;;;;;;;4.55;2.85;;;12.50;96.00;;;;;;5073379;28;20020;-83
2021/05/01 11:09:46;;;;;;;4.38;2.70;;;12.80;95.00;;;;;;5072002;28;20102;-83
2021/05/01 11:12:19;;;;;;;4.30;2.25;;;12.90;95.10;;;;;;5074003;28;20039;-82
2021/05/01 11:15:09;;;;;;;3.95;2.58;;;13.20;95.60;;;;;;5073118;28;20035;-83
2021/05/01 11:18:05;;;;;;;5.00;2.85;;;13.50;95.50;;;;;;5073880;28;20108;-83
2021/05/01 11:20:34;;;;;;;4.75;2.33;;;14.60;94.60;;;;;;5072860;28;20028;-84
2021/05/01 11:23:01;;;;;;;4.53;2.92;;;15.80;93.80;;;;;;5072932;28;20021;-85
2021/05/01 11:25:29;;;;;;;5.63;3.45;;;16.50;91.10;;;;;;5055972;28;20098;-84
2021/05/01 11:27:57;;;;;;;7.10;3.33;;;16.30;89.10;;;;;;5056299;28;20032;-84
2021/05/01 11:30:28;;;;;;;4.68;2.83;;;16.00;89.90;;;;;;5072837;28;20033;-85
2021/05/01 11:32:55;;;;;;;4.20;2.70;;;15.70;90.40;;;;;;5075415;28;20159;-85
2021/05/01 11:35:26;;;;;;;5.32;3.08;;;15.40;90.10;;;;;;5074584;28;20075;-86
2021/05/01 11:37:57;;;;;;;6.22;3.30;;;15.10;90.40;;;;;;5072882;28;20033;-84
2021/05/01 11:40:33;;;;;;;5.20;3.30;;;14.80;91.40;;;;;;5072972;28;20060;-85
2021/05/01 11:43:00;;;;;;;4.82;2.65;;;14.60;91.40;;;;;;5074487;28;20027;-84
2021/05/01 11:45:44;;;;;;;6.07;3.00;;;14.50;92.00;;;;;;5074185;28;20024;-85
2021/05/01 11:48:24;;;;;;;5.20;3.05;;;14.40;91.90;;;;;;5073530;28;20041;-84
2021/05/01 11:50:52;;;;;;;4.72;2.90;;;14.20;92.40;;;;;;5072584;28;20025;-84
2021/05/01 11:53:45;;;;;;;6.57;2.85;;;14.00;91.90;;;;;;5073984;28;20024;-84
2021/05/01 11:56:30;;;;;;;4.28;2.80;;;13.70;92.00;;;;;;5072349;28;20127;-84
2021/05/01 11:59:08;;;;;;;4.80;2.85;;;13.50;92.10;;;;;;5072456;28;20048;-84
2021/05/01 12:01:41;;;;;;;5.32;2.55;;;13.30;92.30;;;;;;5073327;28;20029;-84
2021/05/01 12:04:07;;;;;;;;;;;13.20;92.10;;;;;;5072594;28;20032;-85
2021/05/01 12:06:41;;;;;;;2.80;1.92;;;13.20;92.10;;;;;;5071770;28;19911;-84
2021/05/01 12:09:28;;;;;;;5.20;2.20;;;13.40;92.00;;;;;;5072099;28;20028;-84
2021/05/01 12:11:58;;;;;;;3.72;2.20;;;13.60;92.00;;;;;;5071910;28;20082;-84
2021/05/01 12:14:27;;;;;;;4.78;2.65;;;14.20;92.10;;;;;;5072105;28;20021;-84
2021/05/01 12:17:11;;;;;;;3.58;2.10;;;15.00;90.60;;;;;;5071694;28;20436;-84
2021/05/01 12:19:46;;;;;;;3.67;2.00;;;15.30;90.60;;;;;;5083391;28;20028;-84
2021/05/01 12:22:31;;;;;;;4.28;2.10;;;15.30;90.80;;;;;;5091672;28;20103;-83
2021/05/01 12:24:58;;;;;;;3.67;2.00;;;15.20;91.00;;;;;;5091462;28;20508;-84
2021/05/01 12:27:50;;;;;;;3.47;1.92;;;15.10;91.60;;;;;;5091008;28;20027;-83
2021/05/01 12:30:43;;;;;;;6.63;3.35;;;15.00;91.50;;;;;;5090860;28;20032;-84
2021/05/01 12:33:32;;;;;;;4.10;2.28;;;15.00;90.80;;;;;;5072939;28;20031;-82
2021/05/01 12:36:12;;;;;;;5.22;2.67;;;15.00;91.70;;;;;;5071298;28;20115;-83
2021/05/01 12:38:40;;;;;;;7.00;3.45;;;14.80;91.70;;;;;;5073477;28;20033;-84
2021/05/01 12:41:07;;;;;;;5.15;3.35;;;14.60;92.00;;;;;;5071413;28;20566;-84
2021/05/01 12:43:35;;;;;;;5.68;3.08;;;14.30;92.10;;;;;;5072023;28;20056;-85
2021/05/01 12:46:13;;;;;;;5.03;3.47;;;14.10;92.60;;;;;;5075596;28;20483;-83
2021/05/01 12:48:47;;;;;;;5.68;2.97;;;13.90;92.60;;;;;;5077986;28;20112;-84
2021/05/01 12:51:37;;;;;;;4.00;2.85;;;13.70;93.10;;;;;;5080218;28;20393;-84
2021/05/01 12:54:21;;;;;;;4.25;3.38;;;13.40;93.40;;;;;;5075466;28;20025;-84
2021/05/01 12:57:06;;;;;;;5.00;2.85;;;13.20;93.60;;;;;;5073265;28;20029;-84